sensor_id;sensor_type;location;lat;lon;timestamp;P1;durP1;ratioP1;P2;durP2;ratioP2
39654;SDS011;25336;59.944;11.010;2022-08-21T00:01:57;3.20;;;1.15;;
39654;SDS011;25336;59.944;11.010;2022-08-21T00:04:23;3.33;;;1.30;;
39654;SDS011;25336;59.944;11.010;2022-08-21T00:06:50;2.63;;;0.93;;
39654;SDS011;25336;59.944;11.010;2022-08-21T00:09:16;1.73;;;1.10;;
39654;SDS011;25336;59.944;11.010;2022-08-21T00:11:42;2.60;;;1.17;;
39654;SDS011;25336;59.944;11.010;2022-08-21T00:14:09;2.05;;;1.10;;
39654;SDS011;25336;59.944;11.010;2022-08-21T00:16:35;1.00;;;0.90;;
39654;SDS011;25336;59.944;11.010;2022-08-21T00:19:01;2.58;;;0.98;;
39654;SDS011;25336;59.944;11.010;2022-08-21T00:21:27;1.13;;;0.90;;
39654;SDS011;25336;59.944;11.010;2022-08-21T00:23:53;3.90;;;1.02;;
39654;SDS011;25336;59.944;11.010;2022-08-21T00:26:19;5.82;;;1.52;;
39654;SDS011;25336;59.944;11.010;2022-08-21T00:28:45;2.63;;;1.15;;
39654;SDS011;25336;59.944;11.010;2022-08-21T00:31:11;2.03;;;1.00;;
39654;SDS011;25336;59.944;11.010;2022-08-21T00:33:37;2.50;;;1.23;;
39654;SDS011;25336;59.944;11.010;2022-08-21T00:36:03;2.38;;;0.90;;
39654;SDS011;25336;59.944;11.010;2022-08-21T00:38:29;2.58;;;1.20;;
39654;SDS011;25336;59.944;11.010;2022-08-21T00:40:56;2.88;;;1.10;;
39654;SDS011;25336;59.944;11.010;2022-08-21T00:43:25;2.97;;;1.10;;
39654;SDS011;25336;59.944;11.010;2022-08-21T00:45:53;3.50;;;1.10;;
39654;SDS011;25336;59.944;11.010;2022-08-21T00:48:20;5.43;;;1.40;;
39654;SDS011;25336;59.944;11.010;2022-08-21T00:50:50;1.15;;;0.93;;
39654;SDS011;25336;59.944;11.010;2022-08-21T00:53:23;4.53;;;1.23;;
39654;SDS011;25336;59.944;11.010;2022-08-21T00:55:49;2.20;;;1.10;;
39654;SDS011;25336;59.944;11.010;2022-08-21T00:58:16;3.40;;;1.08;;
39654;SDS011;25336;59.944;11.010;2022-08-21T01:00:43;1.60;;;1.10;;
39654;SDS011;25336;59.944;11.010;2022-08-21T01:03:12;2.90;;;1.15;;
39654;SDS011;25336;59.944;11.010;2022-08-21T01:05:39;1.95;;;1.10;;
39654;SDS011;25336;59.944;11.010;2022-08-21T01:08:06;2.13;;;1.17;;
39654;SDS011;25336;59.944;11.010;2022-08-21T01:10:33;4.57;;;1.63;;
39654;SDS011;25336;59.944;11.010;2022-08-21T01:13:00;2.80;;;1.48;;
39654;SDS011;25336;59.944;11.010;2022-08-21T01:15:27;8.20;;;1.35;;
39654;SDS011;25336;59.944;11.010;2022-08-21T01:17:56;3.55;;;1.42;;
39654;SDS011;25336;59.944;11.010;2022-08-21T01:20:22;3.17;;;1.17;;
39654;SDS011;25336;59.944;11.010;2022-08-21T01:22:48;4.10;;;1.25;;
39654;SDS011;25336;59.944;11.010;2022-08-21T01:25:14;6.18;;;1.63;;
39654;SDS011;25336;59.944;11.010;2022-08-21T01:27:42;2.83;;;1.20;;
39654;SDS011;25336;59.944;11.010;2022-08-21T01:30:14;1.95;;;1.25;;
39654;SDS011;25336;59.944;11.010;2022-08-21T01:32:43;5.20;;;1.50;;
39654;SDS011;25336;59.944;11.010;2022-08-21T01:35:09;3.55;;;1.30;;
39654;SDS011;25336;59.944;11.010;2022-08-21T01:37:37;5.35;;;1.65;;
39654;SDS011;25336;59.944;11.010;2022-08-21T01:40:03;4.95;;;1.67;;
39654;SDS011;25336;59.944;11.010;2022-08-21T01:42:31;3.70;;;1.48;;
39654;SDS011;25336;59.944;11.010;2022-08-21T01:44:56;4.00;;;1.30;;
39654;SDS011;25336;59.944;11.010;2022-08-21T01:47:22;4.55;;;1.70;;
39654;SDS011;25336;59.944;11.010;2022-08-21T01:49:48;5.40;;;2.25;;
39654;SDS011;25336;59.944;11.010;2022-08-21T01:52:13;5.68;;;1.50;;
39654;SDS011;25336;59.944;11.010;2022-08-21T01:54:39;5.35;;;1.48;;
39654;SDS011;25336;59.944;11.010;2022-08-21T01:57:05;4.15;;;1.55;;
39654;SDS011;25336;59.944;11.010;2022-08-21T01:59:31;13.30;;;2.25;;
39654;SDS011;25336;59.944;11.010;2022-08-21T02:01:59;3.42;;;1.27;;
39654;SDS011;25336;59.944;11.010;2022-08-21T02:04:24;2.67;;;1.27;;
39654;SDS011;25336;59.944;11.010;2022-08-21T02:06:50;3.13;;;1.67;;
39654;SDS011;25336;59.944;11.010;2022-08-21T02:09:16;5.70;;;1.67;;
39654;SDS011;25336;59.944;11.010;2022-08-21T02:11:42;6.05;;;1.38;;
39654;SDS011;25336;59.944;11.010;2022-08-21T02:14:11;5.97;;;2.28;;
39654;SDS011;25336;59.944;11.010;2022-08-21T02:16:39;4.60;;;1.65;;
39654;SDS011;25336;59.944;11.010;2022-08-21T02:19:06;3.42;;;1.65;;
39654;SDS011;25336;59.944;11.010;2022-08-21T02:21:33;4.32;;;1.60;;
39654;SDS011;25336;59.944;11.010;2022-08-21T02:23:58;4.65;;;1.70;;
39654;SDS011;25336;59.944;11.010;2022-08-21T02:26:24;5.40;;;1.95;;
39654;SDS011;25336;59.944;11.010;2022-08-21T02:28:50;3.85;;;1.30;;
39654;SDS011;25336;59.944;11.010;2022-08-21T02:31:16;7.35;;;2.63;;
39654;SDS011;25336;59.944;11.010;2022-08-21T02:33:42;4.32;;;1.55;;
39654;SDS011;25336;59.944;11.010;2022-08-21T02:36:08;6.55;;;1.98;;
39654;SDS011;25336;59.944;11.010;2022-08-21T02:38:36;8.30;;;1.92;;
39654;SDS011;25336;59.944;11.010;2022-08-21T02:41:03;4.43;;;1.48;;
39654;SDS011;25336;59.944;11.010;2022-08-21T02:43:31;3.75;;;1.45;;
39654;SDS011;25336;59.944;11.010;2022-08-21T02:45:57;3.30;;;1.45;;
39654;SDS011;25336;59.944;11.010;2022-08-21T02:48:24;5.80;;;1.67;;
39654;SDS011;25336;59.944;11.010;2022-08-21T02:50:53;5.57;;;1.63;;
39654;SDS011;25336;59.944;11.010;2022-08-21T02:53:24;6.65;;;1.80;;
39654;SDS011;25336;59.944;11.010;2022-08-21T02:55:51;4.35;;;1.60;;
39654;SDS011;25336;59.944;11.010;2022-08-21T02:58:20;7.15;;;1.60;;
39654;SDS011;25336;59.944;11.010;2022-08-21T03:00:48;9.55;;;2.20;;
39654;SDS011;25336;59.944;11.010;2022-08-21T03:03:14;4.72;;;1.98;;
39654;SDS011;25336;59.944;11.010;2022-08-21T03:05:41;3.92;;;2.00;;
39654;SDS011;25336;59.944;11.010;2022-08-21T03:08:08;4.55;;;1.85;;
39654;SDS011;25336;59.944;11.010;2022-08-21T03:10:36;5.97;;;1.92;;
39654;SDS011;25336;59.944;11.010;2022-08-21T03:13:04;9.63;;;2.42;;
39654;SDS011;25336;59.944;11.010;2022-08-21T03:15:30;6.35;;;1.77;;
39654;SDS011;25336;59.944;11.010;2022-08-21T03:17:56;3.63;;;1.90;;
39654;SDS011;25336;59.944;11.010;2022-08-21T03:20:23;6.88;;;2.00;;
39654;SDS011;25336;59.944;11.010;2022-08-21T03:22:51;7.75;;;2.30;;
39654;SDS011;25336;59.944;11.010;2022-08-21T03:25:18;3.88;;;1.80;;
39654;SDS011;25336;59.944;11.010;2022-08-21T03:27:45;4.43;;;2.00;;
39654;SDS011;25336;59.944;11.010;2022-08-21T03:30:13;6.75;;;1.95;;
39654;SDS011;25336;59.944;11.010;2022-08-21T03:32:40;9.15;;;2.40;;
39654;SDS011;25336;59.944;11.010;2022-08-21T03:35:06;3.00;;;1.77;;
39654;SDS011;25336;59.944;11.010;2022-08-21T03:37:32;3.70;;;1.92;;
39654;SDS011;25336;59.944;11.010;2022-08-21T03:39:57;4.90;;;2.10;;
39654;SDS011;25336;59.944;11.010;2022-08-21T03:42:23;5.35;;;1.73;;
39654;SDS011;25336;59.944;11.010;2022-08-21T03:44:49;4.82;;;1.70;;
39654;SDS011;25336;59.944;11.010;2022-08-21T03:47:17;7.00;;;2.00;;
39654;SDS011;25336;59.944;11.010;2022-08-21T03:49:43;9.05;;;2.20;;
39654;SDS011;25336;59.944;11.010;2022-08-21T03:52:08;5.57;;;2.20;;
39654;SDS011;25336;59.944;11.010;2022-08-21T03:54:34;8.05;;;2.70;;
39654;SDS011;25336;59.944;11.010;2022-08-21T03:57:00;3.40;;;1.90;;
39654;SDS011;25336;59.944;11.010;2022-08-21T03:59:25;6.50;;;2.08;;
39654;SDS011;25336;59.944;11.010;2022-08-21T04:01:52;4.00;;;2.13;;
39654;SDS011;25336;59.944;11.010;2022-08-21T04:04:18;6.18;;;1.98;;
39654;SDS011;25336;59.944;11.010;2022-08-21T04:06:44;3.75;;;1.60;;
39654;SDS011;25336;59.944;11.010;2022-08-21T04:09:11;7.13;;;2.08;;
39654;SDS011;25336;59.944;11.010;2022-08-21T04:11:36;7.93;;;2.28;;
39654;SDS011;25336;59.944;11.010;2022-08-21T04:14:02;4.72;;;2.25;;
39654;SDS011;25336;59.944;11.010;2022-08-21T04:16:28;7.82;;;2.65;;
39654;SDS011;25336;59.944;11.010;2022-08-21T04:18:53;5.63;;;2.13;;
39654;SDS011;25336;59.944;11.010;2022-08-21T04:21:19;5.40;;;1.80;;
39654;SDS011;25336;59.944;11.010;2022-08-21T04:23:44;6.50;;;2.90;;
39654;SDS011;25336;59.944;11.010;2022-08-21T04:26:10;7.07;;;2.00;;
39654;SDS011;25336;59.944;11.010;2022-08-21T04:28:36;5.40;;;2.20;;
39654;SDS011;25336;59.944;11.010;2022-08-21T04:31:01;5.82;;;1.90;;
39654;SDS011;25336;59.944;11.010;2022-08-21T04:33:27;8.45;;;2.28;;
39654;SDS011;25336;59.944;11.010;2022-08-21T04:35:53;6.25;;;2.17;;
39654;SDS011;25336;59.944;11.010;2022-08-21T04:38:18;5.68;;;2.00;;
39654;SDS011;25336;59.944;11.010;2022-08-21T04:40:44;3.55;;;2.05;;
39654;SDS011;25336;59.944;11.010;2022-08-21T04:43:10;5.25;;;2.00;;
39654;SDS011;25336;59.944;11.010;2022-08-21T04:45:40;8.13;;;2.08;;
39654;SDS011;25336;59.944;11.010;2022-08-21T04:53:07;5.80;;;2.05;;
39654;SDS011;25336;59.944;11.010;2022-08-21T04:55:39;5.35;;;2.10;;
39654;SDS011;25336;59.944;11.010;2022-08-21T04:58:07;9.02;;;1.80;;
39654;SDS011;25336;59.944;11.010;2022-08-21T05:00:36;7.55;;;2.63;;
39654;SDS011;25336;59.944;11.010;2022-08-21T05:03:02;4.85;;;2.60;;
39654;SDS011;25336;59.944;11.010;2022-08-21T05:05:30;12.32;;;2.88;;
39654;SDS011;25336;59.944;11.010;2022-08-21T05:07:57;5.47;;;1.90;;
39654;SDS011;25336;59.944;11.010;2022-08-21T05:10:26;10.85;;;2.80;;
39654;SDS011;25336;59.944;11.010;2022-08-21T05:12:52;6.15;;;2.47;;
39654;SDS011;25336;59.944;11.010;2022-08-21T05:15:18;4.95;;;1.90;;
39654;SDS011;25336;59.944;11.010;2022-08-21T05:17:44;4.53;;;1.95;;
39654;SDS011;25336;59.944;11.010;2022-08-21T05:20:10;7.78;;;2.40;;
39654;SDS011;25336;59.944;11.010;2022-08-21T05:22:39;5.35;;;2.42;;
39654;SDS011;25336;59.944;11.010;2022-08-21T05:25:05;6.18;;;2.22;;
39654;SDS011;25336;59.944;11.010;2022-08-21T05:27:34;7.68;;;2.30;;
39654;SDS011;25336;59.944;11.010;2022-08-21T05:30:00;9.55;;;2.80;;
39654;SDS011;25336;59.944;11.010;2022-08-21T05:32:25;12.90;;;2.60;;
39654;SDS011;25336;59.944;11.010;2022-08-21T05:34:53;8.02;;;2.60;;
39654;SDS011;25336;59.944;11.010;2022-08-21T05:37:19;10.57;;;2.47;;
39654;SDS011;25336;59.944;11.010;2022-08-21T05:39:45;5.03;;;2.38;;
39654;SDS011;25336;59.944;11.010;2022-08-21T05:42:11;4.43;;;2.15;;
39654;SDS011;25336;59.944;11.010;2022-08-21T05:44:37;10.73;;;2.40;;
39654;SDS011;25336;59.944;11.010;2022-08-21T05:47:06;7.30;;;2.03;;
39654;SDS011;25336;59.944;11.010;2022-08-21T05:49:33;7.47;;;2.58;;
39654;SDS011;25336;59.944;11.010;2022-08-21T05:51:59;11.30;;;2.63;;
39654;SDS011;25336;59.944;11.010;2022-08-21T05:54:25;9.65;;;2.65;;
39654;SDS011;25336;59.944;11.010;2022-08-21T05:56:50;5.70;;;2.00;;
39654;SDS011;25336;59.944;11.010;2022-08-21T05:59:16;8.57;;;2.47;;
39654;SDS011;25336;59.944;11.010;2022-08-21T06:01:43;9.98;;;2.67;;
39654;SDS011;25336;59.944;11.010;2022-08-21T06:04:10;9.32;;;2.45;;
39654;SDS011;25336;59.944;11.010;2022-08-21T06:06:37;6.88;;;1.92;;
39654;SDS011;25336;59.944;11.010;2022-08-21T06:09:03;5.45;;;2.50;;
39654;SDS011;25336;59.944;11.010;2022-08-21T06:11:30;12.18;;;2.97;;
39654;SDS011;25336;59.944;11.010;2022-08-21T06:13:56;9.05;;;2.30;;
39654;SDS011;25336;59.944;11.010;2022-08-21T06:16:22;8.38;;;2.40;;
39654;SDS011;25336;59.944;11.010;2022-08-21T06:18:48;6.70;;;2.60;;
39654;SDS011;25336;59.944;11.010;2022-08-21T06:21:14;5.75;;;2.72;;
39654;SDS011;25336;59.944;11.010;2022-08-21T06:23:42;12.38;;;2.75;;
39654;SDS011;25336;59.944;11.010;2022-08-21T06:26:09;5.68;;;2.22;;
39654;SDS011;25336;59.944;11.010;2022-08-21T06:28:37;7.03;;;2.67;;
39654;SDS011;25336;59.944;11.010;2022-08-21T06:31:10;9.65;;;2.72;;
39654;SDS011;25336;59.944;11.010;2022-08-21T06:33:38;8.82;;;2.30;;
39654;SDS011;25336;59.944;11.010;2022-08-21T06:36:09;9.15;;;2.60;;
39654;SDS011;25336;59.944;11.010;2022-08-21T06:38:35;8.98;;;2.35;;
39654;SDS011;25336;59.944;11.010;2022-08-21T06:41:04;9.95;;;2.65;;
39654;SDS011;25336;59.944;11.010;2022-08-21T06:43:30;9.88;;;2.33;;
39654;SDS011;25336;59.944;11.010;2022-08-21T06:45:56;10.25;;;2.40;;
39654;SDS011;25336;59.944;11.010;2022-08-21T06:48:22;6.80;;;2.20;;
39654;SDS011;25336;59.944;11.010;2022-08-21T06:50:48;7.82;;;1.95;;
39654;SDS011;25336;59.944;11.010;2022-08-21T06:53:15;8.48;;;2.50;;
39654;SDS011;25336;59.944;11.010;2022-08-21T06:55:43;13.48;;;2.55;;
39654;SDS011;25336;59.944;11.010;2022-08-21T06:58:09;8.15;;;2.17;;
39654;SDS011;25336;59.944;11.010;2022-08-21T07:00:37;5.40;;;2.33;;
39654;SDS011;25336;59.944;11.010;2022-08-21T07:03:06;5.93;;;2.83;;
39654;SDS011;25336;59.944;11.010;2022-08-21T07:05:32;10.27;;;3.58;;
39654;SDS011;25336;59.944;11.010;2022-08-21T07:07:57;8.80;;;2.40;;
39654;SDS011;25336;59.944;11.010;2022-08-21T07:10:26;7.95;;;2.03;;
39654;SDS011;25336;59.944;11.010;2022-08-21T07:12:52;6.40;;;2.70;;
39654;SDS011;25336;59.944;11.010;2022-08-21T07:15:19;8.38;;;2.38;;
39654;SDS011;25336;59.944;11.010;2022-08-21T07:17:45;11.85;;;3.03;;
39654;SDS011;25336;59.944;11.010;2022-08-21T07:20:11;8.15;;;2.45;;
39654;SDS011;25336;59.944;11.010;2022-08-21T07:22:37;7.38;;;2.22;;
39654;SDS011;25336;59.944;11.010;2022-08-21T07:25:07;6.15;;;2.10;;
39654;SDS011;25336;59.944;11.010;2022-08-21T07:27:33;7.28;;;2.13;;
39654;SDS011;25336;59.944;11.010;2022-08-21T07:29:59;7.05;;;2.33;;
39654;SDS011;25336;59.944;11.010;2022-08-21T07:32:25;8.35;;;2.22;;
39654;SDS011;25336;59.944;11.010;2022-08-21T07:34:52;5.18;;;2.40;;
39654;SDS011;25336;59.944;11.010;2022-08-21T07:37:18;6.90;;;2.35;;
39654;SDS011;25336;59.944;11.010;2022-08-21T07:39:44;7.70;;;2.25;;
39654;SDS011;25336;59.944;11.010;2022-08-21T07:42:13;4.80;;;2.05;;
39654;SDS011;25336;59.944;11.010;2022-08-21T07:44:38;10.75;;;2.72;;
39654;SDS011;25336;59.944;11.010;2022-08-21T07:47:04;5.90;;;2.00;;
39654;SDS011;25336;59.944;11.010;2022-08-21T07:49:30;8.70;;;2.53;;
39654;SDS011;25336;59.944;11.010;2022-08-21T07:51:56;8.10;;;2.50;;
39654;SDS011;25336;59.944;11.010;2022-08-21T07:54:22;8.02;;;2.67;;
39654;SDS011;25336;59.944;11.010;2022-08-21T07:56:47;9.63;;;2.80;;
39654;SDS011;25336;59.944;11.010;2022-08-21T07:59:13;7.45;;;2.83;;
39654;SDS011;25336;59.944;11.010;2022-08-21T08:01:39;8.05;;;3.40;;
39654;SDS011;25336;59.944;11.010;2022-08-21T08:04:05;8.55;;;2.42;;
39654;SDS011;25336;59.944;11.010;2022-08-21T08:06:31;7.88;;;2.45;;
39654;SDS011;25336;59.944;11.010;2022-08-21T08:08:56;8.10;;;2.80;;
39654;SDS011;25336;59.944;11.010;2022-08-21T08:11:22;6.47;;;2.28;;
39654;SDS011;25336;59.944;11.010;2022-08-21T08:13:49;8.93;;;3.15;;
39654;SDS011;25336;59.944;11.010;2022-08-21T08:16:16;7.75;;;2.58;;
39654;SDS011;25336;59.944;11.010;2022-08-21T08:18:42;5.88;;;2.00;;
39654;SDS011;25336;59.944;11.010;2022-08-21T08:21:09;10.00;;;2.85;;
39654;SDS011;25336;59.944;11.010;2022-08-21T08:23:35;8.48;;;2.97;;
39654;SDS011;25336;59.944;11.010;2022-08-21T08:26:01;7.57;;;2.95;;
39654;SDS011;25336;59.944;11.010;2022-08-21T08:28:30;4.85;;;2.00;;
39654;SDS011;25336;59.944;11.010;2022-08-21T08:30:57;7.07;;;2.38;;
39654;SDS011;25336;59.944;11.010;2022-08-21T08:33:24;9.32;;;2.95;;
39654;SDS011;25336;59.944;11.010;2022-08-21T08:35:50;4.57;;;2.28;;
39654;SDS011;25336;59.944;11.010;2022-08-21T08:38:17;5.43;;;2.08;;
39654;SDS011;25336;59.944;11.010;2022-08-21T08:43:32;11.77;;;2.67;;
39654;SDS011;25336;59.944;11.010;2022-08-21T08:46:01;9.88;;;2.97;;
39654;SDS011;25336;59.944;11.010;2022-08-21T08:50:59;7.55;;;1.92;;
39654;SDS011;25336;59.944;11.010;2022-08-21T08:53:32;6.43;;;1.92;;
39654;SDS011;25336;59.944;11.010;2022-08-21T08:56:01;5.68;;;1.80;;
39654;SDS011;25336;59.944;11.010;2022-08-21T08:58:32;6.72;;;2.30;;
39654;SDS011;25336;59.944;11.010;2022-08-21T09:01:03;6.35;;;2.13;;
39654;SDS011;25336;59.944;11.010;2022-08-21T09:03:37;7.10;;;2.35;;
39654;SDS011;25336;59.944;11.010;2022-08-21T09:11:48;4.88;;;1.85;;
39654;SDS011;25336;59.944;11.010;2022-08-21T09:14:28;6.10;;;2.00;;
39654;SDS011;25336;59.944;11.010;2022-08-21T09:27:35;6.72;;;2.15;;
39654;SDS011;25336;59.944;11.010;2022-08-21T09:30:02;4.40;;;1.58;;
39654;SDS011;25336;59.944;11.010;2022-08-21T09:32:31;3.55;;;1.85;;
39654;SDS011;25336;59.944;11.010;2022-08-21T09:35:08;3.33;;;1.75;;
39654;SDS011;25336;59.944;11.010;2022-08-21T09:37:58;3.28;;;1.60;;
39654;SDS011;25336;59.944;11.010;2022-08-21T09:40:41;3.17;;;1.40;;
39654;SDS011;25336;59.944;11.010;2022-08-21T09:45:36;2.03;;;1.10;;
39654;SDS011;25336;59.944;11.010;2022-08-21T09:50:35;3.15;;;1.40;;
39654;SDS011;25336;59.944;11.010;2022-08-21T09:53:01;5.03;;;1.60;;
39654;SDS011;25336;59.944;11.010;2022-08-21T09:55:32;2.90;;;1.60;;
39654;SDS011;25336;59.944;11.010;2022-08-21T09:58:20;1.60;;;1.08;;
39654;SDS011;25336;59.944;11.010;2022-08-21T10:00:58;2.65;;;1.20;;
39654;SDS011;25336;59.944;11.010;2022-08-21T10:03:25;3.22;;;1.35;;
39654;SDS011;25336;59.944;11.010;2022-08-21T10:08:20;5.35;;;1.63;;
39654;SDS011;25336;59.944;11.010;2022-08-21T10:10:50;4.00;;;1.38;;
39654;SDS011;25336;59.944;11.010;2022-08-21T10:16:10;3.75;;;1.63;;
39654;SDS011;25336;59.944;11.010;2022-08-21T10:18:56;3.88;;;1.50;;
39654;SDS011;25336;59.944;11.010;2022-08-21T10:21:59;3.08;;;1.30;;
39654;SDS011;25336;59.944;11.010;2022-08-21T10:24:44;3.85;;;1.10;;
39654;SDS011;25336;59.944;11.010;2022-08-21T10:38:38;3.25;;;1.35;;
39654;SDS011;25336;59.944;11.010;2022-08-21T10:44:05;1.85;;;0.90;;
39654;SDS011;25336;59.944;11.010;2022-08-21T10:58:14;2.53;;;1.00;;
39654;SDS011;25336;59.944;11.010;2022-08-21T11:00:56;1.77;;;1.10;;
39654;SDS011;25336;59.944;11.010;2022-08-21T11:03:39;5.65;;;0.95;;
39654;SDS011;25336;59.944;11.010;2022-08-21T11:06:25;1.83;;;1.00;;
39654;SDS011;25336;59.944;11.010;2022-08-21T11:08:57;2.00;;;1.00;;
39654;SDS011;25336;59.944;11.010;2022-08-21T11:11:31;3.72;;;0.80;;
39654;SDS011;25336;59.944;11.010;2022-08-21T11:16:53;2.35;;;1.00;;
39654;SDS011;25336;59.944;11.010;2022-08-21T11:19:33;3.17;;;1.08;;
39654;SDS011;25336;59.944;11.010;2022-08-21T11:27:24;1.95;;;1.40;;
39654;SDS011;25336;59.944;11.010;2022-08-21T11:29:58;1.73;;;0.82;;
39654;SDS011;25336;59.944;11.010;2022-08-21T11:32:29;2.88;;;1.08;;
39654;SDS011;25336;59.944;11.010;2022-08-21T11:35:39;1.90;;;0.90;;
39654;SDS011;25336;59.944;11.010;2022-08-21T11:38:28;3.05;;;1.08;;
39654;SDS011;25336;59.944;11.010;2022-08-21T11:41:02;4.32;;;1.35;;
39654;SDS011;25336;59.944;11.010;2022-08-21T11:46:25;4.90;;;1.55;;
39654;SDS011;25336;59.944;11.010;2022-08-21T11:51:42;2.22;;;1.25;;
39654;SDS011;25336;59.944;11.010;2022-08-21T11:57:34;1.75;;;0.93;;
39654;SDS011;25336;59.944;11.010;2022-08-21T12:02:33;2.55;;;1.23;;
39654;SDS011;25336;59.944;11.010;2022-08-21T12:05:06;2.95;;;1.60;;
39654;SDS011;25336;59.944;11.010;2022-08-21T12:10:08;2.30;;;1.30;;
39654;SDS011;25336;59.944;11.010;2022-08-21T12:12:46;3.03;;;1.60;;
39654;SDS011;25336;59.944;11.010;2022-08-21T12:17:50;2.75;;;1.10;;
39654;SDS011;25336;59.944;11.010;2022-08-21T12:22:49;2.83;;;1.23;;
39654;SDS011;25336;59.944;11.010;2022-08-21T12:25:19;2.30;;;1.20;;
39654;SDS011;25336;59.944;11.010;2022-08-21T12:27:47;5.38;;;1.95;;
39654;SDS011;25336;59.944;11.010;2022-08-21T12:30:21;3.72;;;1.38;;
39654;SDS011;25336;59.944;11.010;2022-08-21T12:32:54;1.65;;;1.42;;
39654;SDS011;25336;59.944;11.010;2022-08-21T12:35:38;3.42;;;1.40;;
39654;SDS011;25336;59.944;11.010;2022-08-21T12:38:27;3.92;;;1.65;;
39654;SDS011;25336;59.944;11.010;2022-08-21T12:40:58;5.20;;;1.77;;
39654;SDS011;25336;59.944;11.010;2022-08-21T12:43:37;7.97;;;1.52;;
39654;SDS011;25336;59.944;11.010;2022-08-21T12:47:27;4.28;;;1.92;;
39654;SDS011;25336;59.944;11.010;2022-08-21T12:49:31;3.08;;;1.55;;
39654;SDS011;25336;59.944;11.010;2022-08-21T12:52:11;7.75;;;1.95;;
39654;SDS011;25336;59.944;11.010;2022-08-21T12:54:45;4.10;;;2.00;;
39654;SDS011;25336;59.944;11.010;2022-08-21T12:57:20;9.52;;;2.35;;
39654;SDS011;25336;59.944;11.010;2022-08-21T12:59:55;5.00;;;1.83;;
39654;SDS011;25336;59.944;11.010;2022-08-21T13:02:31;6.05;;;2.13;;
39654;SDS011;25336;59.944;11.010;2022-08-21T13:05:02;5.10;;;1.90;;
39654;SDS011;25336;59.944;11.010;2022-08-21T13:07:30;9.63;;;2.00;;
39654;SDS011;25336;59.944;11.010;2022-08-21T13:10:04;7.10;;;2.00;;
39654;SDS011;25336;59.944;11.010;2022-08-21T13:15:22;5.13;;;1.90;;
39654;SDS011;25336;59.944;11.010;2022-08-21T13:17:51;6.53;;;2.03;;
39654;SDS011;25336;59.944;11.010;2022-08-21T13:20:22;5.57;;;2.53;;
39654;SDS011;25336;59.944;11.010;2022-08-21T13:22:50;3.30;;;2.08;;
39654;SDS011;25336;59.944;11.010;2022-08-21T13:25:18;4.70;;;2.13;;
39654;SDS011;25336;59.944;11.010;2022-08-21T13:27:56;5.80;;;2.20;;
39654;SDS011;25336;59.944;11.010;2022-08-21T13:30:44;5.40;;;2.33;;
39654;SDS011;25336;59.944;11.010;2022-08-21T13:33:19;8.75;;;2.03;;
39654;SDS011;25336;59.944;11.010;2022-08-21T13:38:26;5.43;;;2.08;;
39654;SDS011;25336;59.944;11.010;2022-08-21T13:40:56;4.82;;;2.33;;
39654;SDS011;25336;59.944;11.010;2022-08-21T13:46:02;5.40;;;1.65;;
39654;SDS011;25336;59.944;11.010;2022-08-21T13:48:34;2.63;;;1.60;;
39654;SDS011;25336;59.944;11.010;2022-08-21T13:51:00;4.07;;;1.80;;
39654;SDS011;25336;59.944;11.010;2022-08-21T13:53:29;7.32;;;1.85;;
39654;SDS011;25336;59.944;11.010;2022-08-21T13:56:21;5.43;;;2.60;;
39654;SDS011;25336;59.944;11.010;2022-08-21T13:58:50;4.75;;;1.52;;
39654;SDS011;25336;59.944;11.010;2022-08-21T14:03:47;3.17;;;1.42;;
39654;SDS011;25336;59.944;11.010;2022-08-21T14:06:18;1.77;;;1.13;;
39654;SDS011;25336;59.944;11.010;2022-08-21T14:08:51;4.45;;;1.75;;
39654;SDS011;25336;59.944;11.010;2022-08-21T14:11:23;3.95;;;1.90;;
39654;SDS011;25336;59.944;11.010;2022-08-21T14:13:55;4.38;;;2.03;;
39654;SDS011;25336;59.944;11.010;2022-08-21T14:16:25;3.90;;;1.83;;
39654;SDS011;25336;59.944;11.010;2022-08-21T14:21:29;4.97;;;2.22;;
39654;SDS011;25336;59.944;11.010;2022-08-21T14:24:04;7.00;;;2.65;;
39654;SDS011;25336;59.944;11.010;2022-08-21T14:26:30;6.93;;;2.50;;
39654;SDS011;25336;59.944;11.010;2022-08-21T14:28:58;4.68;;;2.03;;
39654;SDS011;25336;59.944;11.010;2022-08-21T14:31:28;5.43;;;2.10;;
39654;SDS011;25336;59.944;11.010;2022-08-21T14:33:55;7.10;;;2.25;;
39654;SDS011;25336;59.944;11.010;2022-08-21T14:36:21;6.82;;;2.15;;
39654;SDS011;25336;59.944;11.010;2022-08-21T14:38:47;4.05;;;1.75;;
39654;SDS011;25336;59.944;11.010;2022-08-21T14:41:20;4.97;;;2.05;;
39654;SDS011;25336;59.944;11.010;2022-08-21T14:43:47;5.68;;;2.35;;
39654;SDS011;25336;59.944;11.010;2022-08-21T14:46:16;7.32;;;2.72;;
39654;SDS011;25336;59.944;11.010;2022-08-21T14:48:46;7.57;;;2.03;;
39654;SDS011;25336;59.944;11.010;2022-08-21T14:51:14;3.83;;;2.60;;
39654;SDS011;25336;59.944;11.010;2022-08-21T14:53:40;6.35;;;2.40;;
39654;SDS011;25336;59.944;11.010;2022-08-21T14:56:06;4.78;;;2.33;;
39654;SDS011;25336;59.944;11.010;2022-08-21T14:58:32;6.07;;;2.38;;
39654;SDS011;25336;59.944;11.010;2022-08-21T15:01:06;1.92;;;1.40;;
39654;SDS011;25336;59.944;11.010;2022-08-21T15:03:34;2.53;;;1.17;;
39654;SDS011;25336;59.944;11.010;2022-08-21T15:06:03;4.45;;;1.30;;
39654;SDS011;25336;59.944;11.010;2022-08-21T15:08:29;2.47;;;0.80;;
39654;SDS011;25336;59.944;11.010;2022-08-21T15:10:55;1.58;;;0.77;;
39654;SDS011;25336;59.944;11.010;2022-08-21T15:13:21;1.23;;;0.80;;
39654;SDS011;25336;59.944;11.010;2022-08-21T15:15:48;4.03;;;1.00;;
39654;SDS011;25336;59.944;11.010;2022-08-21T15:18:17;2.10;;;1.00;;
39654;SDS011;25336;59.944;11.010;2022-08-21T15:20:46;2.17;;;1.02;;
39654;SDS011;25336;59.944;11.010;2022-08-21T15:23:12;3.33;;;1.00;;
39654;SDS011;25336;59.944;11.010;2022-08-21T15:25:40;3.58;;;1.27;;
39654;SDS011;25336;59.944;11.010;2022-08-21T15:28:10;2.10;;;0.93;;
39654;SDS011;25336;59.944;11.010;2022-08-21T15:30:37;2.95;;;1.00;;
39654;SDS011;25336;59.944;11.010;2022-08-21T15:33:07;3.70;;;1.20;;
39654;SDS011;25336;59.944;11.010;2022-08-21T15:35:33;1.38;;;0.80;;
39654;SDS011;25336;59.944;11.010;2022-08-21T15:37:59;4.72;;;1.17;;
39654;SDS011;25336;59.944;11.010;2022-08-21T15:40:25;4.80;;;1.30;;
39654;SDS011;25336;59.944;11.010;2022-08-21T15:42:52;2.65;;;1.13;;
39654;SDS011;25336;59.944;11.010;2022-08-21T15:45:22;6.70;;;1.77;;
39654;SDS011;25336;59.944;11.010;2022-08-21T15:47:48;5.30;;;1.13;;
39654;SDS011;25336;59.944;11.010;2022-08-21T15:50:14;3.83;;;1.20;;
39654;SDS011;25336;59.944;11.010;2022-08-21T15:52:40;3.85;;;1.23;;
39654;SDS011;25336;59.944;11.010;2022-08-21T15:55:06;4.55;;;1.10;;
39654;SDS011;25336;59.944;11.010;2022-08-21T15:57:32;2.33;;;1.02;;
39654;SDS011;25336;59.944;11.010;2022-08-21T16:00:03;5.40;;;1.00;;
39654;SDS011;25336;59.944;11.010;2022-08-21T16:02:37;3.38;;;1.30;;
39654;SDS011;25336;59.944;11.010;2022-08-21T16:05:04;3.17;;;1.30;;
39654;SDS011;25336;59.944;11.010;2022-08-21T16:07:30;5.55;;;1.20;;
39654;SDS011;25336;59.944;11.010;2022-08-21T16:09:56;4.38;;;1.25;;
39654;SDS011;25336;59.944;11.010;2022-08-21T16:12:25;4.05;;;1.20;;
39654;SDS011;25336;59.944;11.010;2022-08-21T16:14:55;2.08;;;1.02;;
39654;SDS011;25336;59.944;11.010;2022-08-21T16:17:24;5.22;;;1.20;;
39654;SDS011;25336;59.944;11.010;2022-08-21T16:19:56;1.60;;;0.85;;
39654;SDS011;25336;59.944;11.010;2022-08-21T16:22:22;1.10;;;0.95;;
39654;SDS011;25336;59.944;11.010;2022-08-21T16:24:48;1.35;;;0.70;;
39654;SDS011;25336;59.944;11.010;2022-08-21T16:27:13;1.65;;;1.00;;